sensor_id;sensor_type;location;lat;lon;timestamp;pressure;altitude;pressure_sealevel;temperature;humidity
17072;BME280;7731;50.720;6.912;2024-01-10T00:02:10;101325.41;;;-7.54;100.00
17072;BME280;7731;50.720;6.912;2024-01-10T00:04:41;101327.97;;;-7.53;100.00
17072;BME280;7731;50.720;6.912;2024-01-10T00:07:11;101324.25;;;-7.62;100.00
17072;BME280;7731;50.720;6.912;2024-01-10T00:09:54;101326.09;;;-7.58;100.00
17072;BME280;7731;50.720;6.912;2024-01-10T00:12:28;101319.91;;;-7.66;100.00
17072;BME280;7731;50.720;6.912;2024-01-10T00:15:05;101317.41;;;-7.47;100.00
17072;BME280;7731;50.720;6.912;2024-01-10T00:17:35;101307.56;;;-7.44;100.00
17072;BME280;7731;50.720;6.912;2024-01-10T00:20:08;101303.63;;;-7.58;100.00
17072;BME280;7731;50.720;6.912;2024-01-10T00:22:42;101309.22;;;-7.64;100.00
17072;BME280;7731;50.720;6.912;2024-01-10T00:25:19;101320.56;;;-7.70;100.00
17072;BME280;7731;50.720;6.912;2024-01-10T00:28:00;101314.44;;;-7.77;100.00
17072;BME280;7731;50.720;6.912;2024-01-10T00:30:33;101313.72;;;-7.75;100.00
17072;BME280;7731;50.720;6.912;2024-01-10T00:33:04;101309.94;;;-7.47;100.00
17072;BME280;7731;50.720;6.912;2024-01-10T00:35:46;101307.69;;;-7.60;100.00
17072;BME280;7731;50.720;6.912;2024-01-10T00:38:17;101301.28;;;-7.36;100.00
17072;BME280;7731;50.720;6.912;2024-01-10T00:40:50;101298.50;;;-7.22;100.00
17072;BME280;7731;50.720;6.912;2024-01-10T00:43:23;101299.56;;;-7.37;100.00
17072;BME280;7731;50.720;6.912;2024-01-10T00:45:56;101289.84;;;-7.30;100.00
17072;BME280;7731;50.720;6.912;2024-01-10T00:48:27;101291.88;;;-7.41;100.00
17072;BME280;7731;50.720;6.912;2024-01-10T00:50:57;101294.50;;;-7.58;100.00
17072;BME280;7731;50.720;6.912;2024-01-10T00:53:27;101291.94;;;-7.59;100.00
17072;BME280;7731;50.720;6.912;2024-01-10T00:55:58;101285.88;;;-7.45;100.00
17072;BME280;7731;50.720;6.912;2024-01-10T00:58:30;101288.63;;;-7.39;100.00
17072;BME280;7731;50.720;6.912;2024-01-10T01:01:03;101284.84;;;-7.30;100.00
17072;BME280;7731;50.720;6.912;2024-01-10T01:03:37;101292.84;;;-7.57;100.00
17072;BME280;7731;50.720;6.912;2024-01-10T01:06:07;101283.38;;;-7.45;100.00
17072;BME280;7731;50.720;6.912;2024-01-10T01:08:39;101285.50;;;-7.34;100.00
17072;BME280;7731;50.720;6.912;2024-01-10T01:11:12;101275.09;;;-7.24;100.00
17072;BME280;7731;50.720;6.912;2024-01-10T01:13:45;101279.97;;;-7.27;100.00
17072;BME280;7731;50.720;6.912;2024-01-10T01:16:16;101274.38;;;-7.22;100.00
17072;BME280;7731;50.720;6.912;2024-01-10T01:18:46;101277.84;;;-7.18;100.00
17072;BME280;7731;50.720;6.912;2024-01-10T01:21:23;101284.44;;;-7.40;100.00
17072;BME280;7731;50.720;6.912;2024-01-10T01:23:54;101265.00;;;-7.66;100.00
17072;BME280;7731;50.720;6.912;2024-01-10T01:26:24;101285.09;;;-7.63;100.00
17072;BME280;7731;50.720;6.912;2024-01-10T01:28:57;101282.59;;;-7.63;100.00
17072;BME280;7731;50.720;6.912;2024-01-10T01:31:27;101287.66;;;-7.62;100.00
17072;BME280;7731;50.720;6.912;2024-01-10T01:33:58;101282.34;;;-7.30;100.00
17072;BME280;7731;50.720;6.912;2024-01-10T01:36:28;101289.84;;;-7.50;100.00
17072;BME280;7731;50.720;6.912;2024-01-10T01:39:04;101295.06;;;-7.63;100.00
17072;BME280;7731;50.720;6.912;2024-01-10T01:41:34;101289.72;;;-7.53;100.00
17072;BME280;7731;50.720;6.912;2024-01-10T01:44:14;101282.66;;;-7.62;100.00
17072;BME280;7731;50.720;6.912;2024-01-10T01:46:46;101283.94;;;-7.52;100.00
17072;BME280;7731;50.720;6.912;2024-01-10T01:49:19;101286.56;;;-7.68;100.00
17072;BME280;7731;50.720;6.912;2024-01-10T01:51:52;101278.53;;;-7.81;100.00
17072;BME280;7731;50.720;6.912;2024-01-10T01:54:26;101286.13;;;-7.97;100.00
17072;BME280;7731;50.720;6.912;2024-01-10T01:56:57;101281.94;;;-7.79;100.00
17072;BME280;7731;50.720;6.912;2024-01-10T01:59:30;101268.44;;;-7.64;100.00
17072;BME280;7731;50.720;6.912;2024-01-10T02:02:04;101278.94;;;-7.52;100.00
17072;BME280;7731;50.720;6.912;2024-01-10T02:04:36;101277.50;;;-7.86;100.00
17072;BME280;7731;50.720;6.912;2024-01-10T02:07:06;101281.28;;;-7.94;100.00
17072;BME280;7731;50.720;6.912;2024-01-10T02:09:43;101274.06;;;-7.68;100.00
17072;BME280;7731;50.720;6.912;2024-01-10T02:12:13;101282.75;;;-7.41;100.00
17072;BME280;7731;50.720;6.912;2024-01-10T02:14:46;101281.13;;;-7.60;100.00
17072;BME280;7731;50.720;6.912;2024-01-10T02:17:17;101274.28;;;-7.04;100.00
17072;BME280;7731;50.720;6.912;2024-01-10T02:19:47;101271.91;;;-7.61;100.00
17072;BME280;7731;50.720;6.912;2024-01-10T02:22:17;101266.84;;;-7.62;100.00
17072;BME280;7731;50.720;6.912;2024-01-10T02:24:54;101256.47;;;-7.32;100.00
17072;BME280;7731;50.720;6.912;2024-01-10T02:27:25;101255.72;;;-7.30;100.00
17072;BME280;7731;50.720;6.912;2024-01-10T02:29:58;101254.38;;;-7.43;100.00
17072;BME280;7731;50.720;6.912;2024-01-10T02:32:33;101251.69;;;-7.47;100.00
17072;BME280;7731;50.720;6.912;2024-01-10T02:35:08;101260.81;;;-7.67;100.00
17072;BME280;7731;50.720;6.912;2024-01-10T02:37:46;101258.31;;;-7.67;100.00
17072;BME280;7731;50.720;6.912;2024-01-10T02:40:22;101259.94;;;-7.48;100.00
17072;BME280;7731;50.720;6.912;2024-01-10T02:42:52;101247.00;;;-7.20;100.00
17072;BME280;7731;50.720;6.912;2024-01-10T02:45:26;101261.84;;;-7.23;100.00
17072;BME280;7731;50.720;6.912;2024-01-10T02:47:59;101255.84;;;-7.27;100.00
17072;BME280;7731;50.720;6.912;2024-01-10T02:50:30;101260.00;;;-7.47;100.00
17072;BME280;7731;50.720;6.912;2024-01-10T02:53:00;101263.59;;;-7.61;100.00
17072;BME280;7731;50.720;6.912;2024-01-10T02:55:33;101260.78;;;-7.48;100.00
17072;BME280;7731;50.720;6.912;2024-01-10T02:58:04;101257.72;;;-7.42;100.00
17072;BME280;7731;50.720;6.912;2024-01-10T03:00:36;101256.88;;;-7.82;100.00
17072;BME280;7731;50.720;6.912;2024-01-10T03:03:09;101255.94;;;-7.84;100.00
17072;BME280;7731;50.720;6.912;2024-01-10T03:05:40;101246.50;;;-7.72;100.00
17072;BME280;7731;50.720;6.912;2024-01-10T03:08:17;101248.53;;;-7.63;100.00
17072;BME280;7731;50.720;6.912;2024-01-10T03:11:03;101243.63;;;-7.61;100.00
17072;BME280;7731;50.720;6.912;2024-01-10T03:13:36;101243.13;;;-7.53;100.00
17072;BME280;7731;50.720;6.912;2024-01-10T03:16:09;101229.28;;;-7.46;100.00
17072;BME280;7731;50.720;6.912;2024-01-10T03:18:40;101241.75;;;-7.26;100.00
17072;BME280;7731;50.720;6.912;2024-01-10T03:21:10;101234.66;;;-7.37;100.00
17072;BME280;7731;50.720;6.912;2024-01-10T03:23:43;101232.44;;;-7.50;100.00
17072;BME280;7731;50.720;6.912;2024-01-10T03:26:16;101234.53;;;-7.59;100.00
17072;BME280;7731;50.720;6.912;2024-01-10T03:28:47;101246.25;;;-7.78;100.00
17072;BME280;7731;50.720;6.912;2024-01-10T03:31:18;101241.50;;;-7.72;100.00
17072;BME280;7731;50.720;6.912;2024-01-10T03:33:49;101231.34;;;-7.57;100.00
17072;BME280;7731;50.720;6.912;2024-01-10T03:36:20;101232.69;;;-7.44;100.00
17072;BME280;7731;50.720;6.912;2024-01-10T03:38:51;101239.19;;;-7.07;100.00
17072;BME280;7731;50.720;6.912;2024-01-10T03:41:24;101233.81;;;-7.37;100.00
17072;BME280;7731;50.720;6.912;2024-01-10T03:43:54;101227.78;;;-7.62;100.00
17072;BME280;7731;50.720;6.912;2024-01-10T03:46:27;101221.56;;;-7.10;100.00
17072;BME280;7731;50.720;6.912;2024-01-10T03:48:57;101227.63;;;-7.05;100.00
17072;BME280;7731;50.720;6.912;2024-01-10T03:51:28;101220.16;;;-6.82;100.00
17072;BME280;7731;50.720;6.912;2024-01-10T03:53:58;101225.06;;;-7.06;100.00
17072;BME280;7731;50.720;6.912;2024-01-10T03:56:31;101220.56;;;-6.94;100.00
17072;BME280;7731;50.720;6.912;2024-01-10T03:59:02;101226.00;;;-6.38;100.00
17072;BME280;7731;50.720;6.912;2024-01-10T04:01:32;101214.94;;;-6.88;100.00
17072;BME280;7731;50.720;6.912;2024-01-10T04:04:14;101230.94;;;-7.25;100.00
17072;BME280;7731;50.720;6.912;2024-01-10T04:06:53;101229.56;;;-7.79;100.00
17072;BME280;7731;50.720;6.912;2024-01-10T04:09:24;101225.47;;;-7.57;100.00
17072;BME280;7731;50.720;6.912;2024-01-10T04:12:05;101223.88;;;-7.36;100.00
17072;BME280;7731;50.720;6.912;2024-01-10T04:14:35;101227.81;;;-7.41;100.00
17072;BME280;7731;50.720;6.912;2024-01-10T04:17:05;101219.72;;;-7.15;100.00
17072;BME280;7731;50.720;6.912;2024-01-10T04:19:36;101218.84;;;-7.37;100.00
17072;BME280;7731;50.720;6.912;2024-01-10T04:22:06;101226.22;;;-7.39;100.00
17072;BME280;7731;50.720;6.912;2024-01-10T04:24:37;101227.31;;;-7.53;100.00
17072;BME280;7731;50.720;6.912;2024-01-10T04:27:27;101217.19;;;-7.56;100.00
17072;BME280;7731;50.720;6.912;2024-01-10T04:29:58;101220.84;;;-7.48;100.00
17072;BME280;7731;50.720;6.912;2024-01-10T04:32:28;101221.41;;;-6.93;100.00
17072;BME280;7731;50.720;6.912;2024-01-10T04:34:58;101214.50;;;-6.78;100.00
17072;BME280;7731;50.720;6.912;2024-01-10T04:37:31;101205.06;;;-6.85;100.00
17072;BME280;7731;50.720;6.912;2024-01-10T04:40:02;101209.06;;;-6.68;100.00
17072;BME280;7731;50.720;6.912;2024-01-10T04:42:38;101206.28;;;-6.96;100.00
17072;BME280;7731;50.720;6.912;2024-01-10T04:45:09;101214.59;;;-7.19;100.00
17072;BME280;7731;50.720;6.912;2024-01-10T04:47:39;101211.13;;;-7.42;100.00
17072;BME280;7731;50.720;6.912;2024-01-10T04:50:16;101201.97;;;-7.62;100.00
17072;BME280;7731;50.720;6.912;2024-01-10T04:52:46;101205.38;;;-7.60;100.00
17072;BME280;7731;50.720;6.912;2024-01-10T04:55:29;101200.25;;;-7.63;100.00
17072;BME280;7731;50.720;6.912;2024-01-10T04:58:04;101205.50;;;-7.57;100.00
17072;BME280;7731;50.720;6.912;2024-01-10T05:00:34;101210.59;;;-7.34;100.00
17072;BME280;7731;50.720;6.912;2024-01-10T05:03:10;101204.09;;;-7.31;100.00
17072;BME280;7731;50.720;6.912;2024-01-10T05:05:40;101204.41;;;-7.23;100.00
17072;BME280;7731;50.720;6.912;2024-01-10T05:08:13;101207.88;;;-7.20;100.00
17072;BME280;7731;50.720;6.912;2024-01-10T05:10:48;101204.59;;;-7.19;100.00
17072;BME280;7731;50.720;6.912;2024-01-10T05:13:29;101216.16;;;-7.61;100.00
17072;BME280;7731;50.720;6.912;2024-01-10T05:16:01;101206.91;;;-7.83;100.00
17072;BME280;7731;50.720;6.912;2024-01-10T05:18:32;101214.31;;;-7.85;100.00
17072;BME280;7731;50.720;6.912;2024-01-10T05:21:03;101216.91;;;-7.23;100.00
17072;BME280;7731;50.720;6.912;2024-01-10T05:23:45;101220.97;;;-7.66;100.00
17072;BME280;7731;50.720;6.912;2024-01-10T05:26:16;101210.25;;;-7.63;100.00
17072;BME280;7731;50.720;6.912;2024-01-10T05:28:51;101199.88;;;-7.53;100.00
17072;BME280;7731;50.720;6.912;2024-01-10T05:31:22;101200.25;;;-7.63;100.00
17072;BME280;7731;50.720;6.912;2024-01-10T05:33:52;101207.22;;;-7.56;100.00
17072;BME280;7731;50.720;6.912;2024-01-10T05:36:23;101203.38;;;-7.48;100.00
17072;BME280;7731;50.720;6.912;2024-01-10T05:38:53;101202.09;;;-7.59;100.00
17072;BME280;7731;50.720;6.912;2024-01-10T05:41:24;101198.69;;;-7.61;100.00
17072;BME280;7731;50.720;6.912;2024-01-10T05:43:57;101193.22;;;-7.53;100.00
17072;BME280;7731;50.720;6.912;2024-01-10T05:46:28;101192.06;;;-7.61;100.00
17072;BME280;7731;50.720;6.912;2024-01-10T05:49:05;101181.59;;;-6.68;100.00
17072;BME280;7731;50.720;6.912;2024-01-10T05:51:36;101171.06;;;-5.88;99.02
17072;BME280;7731;50.720;6.912;2024-01-10T05:54:06;101170.63;;;-5.50;88.37
17072;BME280;7731;50.720;6.912;2024-01-10T05:56:39;101175.78;;;-5.46;87.27
17072;BME280;7731;50.720;6.912;2024-01-10T05:59:17;101179.81;;;-6.25;88.89
17072;BME280;7731;50.720;6.912;2024-01-10T06:02:03;101185.25;;;-6.35;91.40
17072;BME280;7731;50.720;6.912;2024-01-10T06:04:33;101187.91;;;-7.20;97.18
17072;BME280;7731;50.720;6.912;2024-01-10T06:07:09;101189.34;;;-7.46;100.00
17072;BME280;7731;50.720;6.912;2024-01-10T06:09:39;101202.28;;;-7.35;100.00
17072;BME280;7731;50.720;6.912;2024-01-10T06:12:12;101196.94;;;-7.23;100.00
17072;BME280;7731;50.720;6.912;2024-01-10T06:14:45;101196.28;;;-7.18;100.00
17072;BME280;7731;50.720;6.912;2024-01-10T06:17:15;101194.84;;;-7.33;100.00
17072;BME280;7731;50.720;6.912;2024-01-10T06:19:46;101184.50;;;-7.22;100.00
17072;BME280;7731;50.720;6.912;2024-01-10T06:22:26;101192.41;;;-7.11;100.00
17072;BME280;7731;50.720;6.912;2024-01-10T06:24:57;101196.94;;;-7.23;100.00
17072;BME280;7731;50.720;6.912;2024-01-10T06:27:30;101191.06;;;-7.03;100.00
17072;BME280;7731;50.720;6.912;2024-01-10T06:30:04;101190.81;;;-7.30;100.00
17072;BME280;7731;50.720;6.912;2024-01-10T06:32:37;101184.31;;;-7.26;100.00
17072;BME280;7731;50.720;6.912;2024-01-10T06:35:08;101191.00;;;-7.25;100.00
17072;BME280;7731;50.720;6.912;2024-01-10T06:37:39;101198.72;;;-7.19;100.00
17072;BME280;7731;50.720;6.912;2024-01-10T06:40:12;101195.19;;;-7.45;100.00
17072;BME280;7731;50.720;6.912;2024-01-10T06:42:42;101207.97;;;-7.38;100.00
17072;BME280;7731;50.720;6.912;2024-01-10T06:45:15;101204.22;;;-7.07;100.00
17072;BME280;7731;50.720;6.912;2024-01-10T06:47:50;101203.00;;;-7.57;100.00
17072;BME280;7731;50.720;6.912;2024-01-10T06:50:21;101189.31;;;-7.67;100.00
17072;BME280;7731;50.720;6.912;2024-01-10T06:52:51;101199.09;;;-7.52;100.00
17072;BME280;7731;50.720;6.912;2024-01-10T06:55:21;101197.06;;;-7.20;100.00
17072;BME280;7731;50.720;6.912;2024-01-10T06:57:56;101205.63;;;-7.54;100.00
17072;BME280;7731;50.720;6.912;2024-01-10T07:00:29;101206.56;;;-7.52;100.00
17072;BME280;7731;50.720;6.912;2024-01-10T07:03:01;101204.84;;;-7.53;100.00
17072;BME280;7731;50.720;6.912;2024-01-10T07:05:32;101198.00;;;-7.38;100.00
17072;BME280;7731;50.720;6.912;2024-01-10T07:08:03;101196.03;;;-7.45;100.00
17072;BME280;7731;50.720;6.912;2024-01-10T07:10:36;101201.44;;;-7.36;100.00
17072;BME280;7731;50.720;6.912;2024-01-10T07:13:09;101203.09;;;-7.34;100.00
17072;BME280;7731;50.720;6.912;2024-01-10T07:15:42;101202.38;;;-7.32;100.00
17072;BME280;7731;50.720;6.912;2024-01-10T07:18:13;101202.50;;;-7.29;100.00
17072;BME280;7731;50.720;6.912;2024-01-10T07:20:43;101210.31;;;-7.21;100.00
17072;BME280;7731;50.720;6.912;2024-01-10T07:23:16;101210.44;;;-7.18;100.00
17072;BME280;7731;50.720;6.912;2024-01-10T07:25:47;101207.09;;;-7.19;100.00
17072;BME280;7731;50.720;6.912;2024-01-10T07:28:17;101214.72;;;-7.15;100.00
17072;BME280;7731;50.720;6.912;2024-01-10T07:30:50;101215.56;;;-7.15;100.00
17072;BME280;7731;50.720;6.912;2024-01-10T07:33:23;101215.63;;;-7.13;100.00
17072;BME280;7731;50.720;6.912;2024-01-10T07:36:00;101215.69;;;-7.12;100.00
17072;BME280;7731;50.720;6.912;2024-01-10T07:38:31;101223.47;;;-7.04;100.00
17072;BME280;7731;50.720;6.912;2024-01-10T07:41:04;101217.03;;;-7.20;100.00
17072;BME280;7731;50.720;6.912;2024-01-10T07:43:35;101219.13;;;-7.08;100.00
17072;BME280;7731;50.720;6.912;2024-01-10T07:46:10;101228.94;;;-7.13;100.00
17072;BME280;7731;50.720;6.912;2024-01-10T07:48:42;101229.63;;;-7.17;100.00
17072;BME280;7731;50.720;6.912;2024-01-10T07:51:13;101226.38;;;-7.14;100.00
17072;BME280;7731;50.720;6.912;2024-01-10T07:53:50;101227.97;;;-7.16;100.00
17072;BME280;7731;50.720;6.912;2024-01-10T07:56:20;101227.41;;;-7.30;100.00
17072;BME280;7731;50.720;6.912;2024-01-10T07:58:56;101224.16;;;-7.49;100.00
17072;BME280;7731;50.720;6.912;2024-01-10T08:01:32;101220.78;;;-7.30;100.00
17072;BME280;7731;50.720;6.912;2024-01-10T08:04:09;101223.47;;;-7.25;100.00
17072;BME280;7731;50.720;6.912;2024-01-10T08:06:42;101231.63;;;-7.29;100.00
17072;BME280;7731;50.720;6.912;2024-01-10T08:09:15;101221.22;;;-7.19;100.00
17072;BME280;7731;50.720;6.912;2024-01-10T08:11:46;101235.03;;;-7.27;100.00
17072;BME280;7731;50.720;6.912;2024-01-10T08:14:17;101226.16;;;-7.00;100.00
17072;BME280;7731;50.720;6.912;2024-01-10T08:16:50;101227.50;;;-7.08;100.00
17072;BME280;7731;50.720;6.912;2024-01-10T08:19:22;101234.00;;;-6.90;100.00
17072;BME280;7731;50.720;6.912;2024-01-10T08:21:55;101228.00;;;-6.95;100.00
17072;BME280;7731;50.720;6.912;2024-01-10T08:24:25;101233.59;;;-6.80;100.00
17072;BME280;7731;50.720;6.912;2024-01-10T08:26:55;101228.72;;;-6.77;100.00
17072;BME280;7731;50.720;6.912;2024-01-10T08:29:28;101229.66;;;-6.52;100.00
17072;BME280;7731;50.720;6.912;2024-01-10T08:32:02;101234.50;;;-6.33;98.96
17072;BME280;7731;50.720;6.912;2024-01-10T08:34:32;101223.88;;;-5.80;98.23
17072;BME280;7731;50.720;6.912;2024-01-10T08:37:03;101221.75;;;-5.69;91.61
17072;BME280;7731;50.720;6.912;2024-01-10T08:39:35;101221.16;;;-5.36;87.72
17072;BME280;7731;50.720;6.912;2024-01-10T08:42:05;101230.03;;;-5.46;88.39
17072;BME280;7731;50.720;6.912;2024-01-10T08:44:37;101223.09;;;-5.53;86.47
17072;BME280;7731;50.720;6.912;2024-01-10T08:47:10;101231.09;;;-5.40;83.11
17072;BME280;7731;50.720;6.912;2024-01-10T08:49:41;101227.66;;;-4.63;81.98
17072;BME280;7731;50.720;6.912;2024-01-10T08:52:11;101226.94;;;-4.30;81.45
17072;BME280;7731;50.720;6.912;2024-01-10T08:54:41;101231.13;;;-4.31;75.73
17072;BME280;7731;50.720;6.912;2024-01-10T08:57:12;101235.06;;;-3.78;73.16
17072;BME280;7731;50.720;6.912;2024-01-10T08:59:42;101242.22;;;-3.92;71.72
17072;BME280;7731;50.720;6.912;2024-01-10T09:02:18;101236.34;;;-3.94;70.93
17072;BME280;7731;50.720;6.912;2024-01-10T09:04:51;101235.78;;;-3.52;71.71
17072;BME280;7731;50.720;6.912;2024-01-10T09:07:22;101240.31;;;-3.70;69.65
17072;BME280;7731;50.720;6.912;2024-01-10T09:09:52;101232.69;;;-3.73;70.13
17072;BME280;7731;50.720;6.912;2024-01-10T09:12:23;101239.44;;;-3.41;67.41
17072;BME280;7731;50.720;6.912;2024-01-10T09:14:55;101241.75;;;-3.15;66.64
17072;BME280;7731;50.720;6.912;2024-01-10T09:17:29;101241.75;;;-3.15;65.28
17072;BME280;7731;50.720;6.912;2024-01-10T09:19:59;101235.09;;;-3.13;64.09
17072;BME280;7731;50.720;6.912;2024-01-10T09:22:33;101241.56;;;-2.86;64.41
17072;BME280;7731;50.720;6.912;2024-01-10T09:25:06;101238.94;;;-3.26;64.23
17072;BME280;7731;50.720;6.912;2024-01-10T09:27:36;101234.53;;;-3.01;65.74
17072;BME280;7731;50.720;6.912;2024-01-10T09:30:08;101239.25;;;-3.15;65.03
17072;BME280;7731;50.720;6.912;2024-01-10T09:32:46;101232.50;;;-2.81;64.79
17072;BME280;7731;50.720;6.912;2024-01-10T09:35:20;101237.72;;;-2.72;63.13
17072;BME280;7731;50.720;6.912;2024-01-10T09:37:50;101243.25;;;-2.50;62.14
17072;BME280;7731;50.720;6.912;2024-01-10T09:40:24;101240.28;;;-2.30;61.86
17072;BME280;7731;50.720;6.912;2024-01-10T09:43:05;101235.31;;;-1.39;68.13
17072;BME280;7731;50.720;6.912;2024-01-10T09:45:43;101233.03;;;-1.25;61.35
17072;BME280;7731;50.720;6.912;2024-01-10T09:48:19;101238.41;;;-0.50;59.35
17072;BME280;7731;50.720;6.912;2024-01-10T09:50:51;101243.88;;;-1.31;56.88
17072;BME280;7731;50.720;6.912;2024-01-10T09:53:26;101245.88;;;-1.60;57.59
17072;BME280;7731;50.720;6.912;2024-01-10T09:56:03;101243.25;;;-1.65;57.07
17072;BME280;7731;50.720;6.912;2024-01-10T09:58:38;101246.66;;;-2.07;58.03
17072;BME280;7731;50.720;6.912;2024-01-10T10:01:09;101251.19;;;-2.31;59.11
17072;BME280;7731;50.720;6.912;2024-01-10T10:03:46;101257.63;;;-2.03;60.87
17072;BME280;7731;50.720;6.912;2024-01-10T10:06:21;101245.38;;;-2.27;58.22
17072;BME280;7731;50.720;6.912;2024-01-10T10:08:54;101244.09;;;-2.10;59.33
17072;BME280;7731;50.720;6.912;2024-01-10T10:11:30;101243.69;;;-2.28;59.83
17072;BME280;7731;50.720;6.912;2024-01-10T10:14:15;101250.22;;;-2.37;60.27
17072;BME280;7731;50.720;6.912;2024-01-10T10:16:46;101248.88;;;-1.80;61.04
17072;BME280;7731;50.720;6.912;2024-01-10T10:19:27;101239.75;;;-1.73;58.64
17072;BME280;7731;50.720;6.912;2024-01-10T10:22:10;101241.06;;;-1.93;57.91
17072;BME280;7731;50.720;6.912;2024-01-10T10:24:48;101236.69;;;-2.42;59.33
17072;BME280;7731;50.720;6.912;2024-01-10T10:27:20;101231.38;;;-2.16;61.39
17072;BME280;7731;50.720;6.912;2024-01-10T10:29:51;101228.75;;;-2.21;60.75
17072;BME280;7731;50.720;6.912;2024-01-10T10:32:21;101238.28;;;-2.47;62.23
17072;BME280;7731;50.720;6.912;2024-01-10T10:34:56;101238.41;;;-2.41;60.41
17072;BME280;7731;50.720;6.912;2024-01-10T10:37:27;101232.72;;;-2.30;62.40
17072;BME280;7731;50.720;6.912;2024-01-10T10:39:57;101226.50;;;-1.64;60.21
17072;BME280;7731;50.720;6.912;2024-01-10T10:42:30;101226.97;;;-2.25;59.97
17072;BME280;7731;50.720;6.912;2024-01-10T10:45:07;101230.13;;;-1.94;59.35
17072;BME280;7731;50.720;6.912;2024-01-10T10:47:43;101240.16;;;-2.37;59.92
17072;BME280;7731;50.720;6.912;2024-01-10T10:50:24;101232.88;;;-2.23;61.02
17072;BME280;7731;50.720;6.912;2024-01-10T10:52:55;101224.75;;;-1.67;58.99
17072;BME280;7731;50.720;6.912;2024-01-10T10:55:30;101233.50;;;-1.93;58.75
17072;BME280;7731;50.720;6.912;2024-01-10T10:58:05;101232.38;;;-2.08;59.08
17072;BME280;7731;50.720;6.912;2024-01-10T11:00:43;101225.94;;;-1.93;58.43
17072;BME280;7731;50.720;6.912;2024-01-10T11:03:18;101233.38;;;-2.41;61.05
17072;BME280;7731;50.720;6.912;2024-01-10T11:06:01;101228.72;;;-2.22;61.25
17072;BME280;7731;50.720;6.912;2024-01-10T11:08:37;101232.06;;;-1.81;59.95
17072;BME280;7731;50.720;6.912;2024-01-10T11:11:22;101225.22;;;-1.86;59.66
17072;BME280;7731;50.720;6.912;2024-01-10T11:14:17;101233.25;;;-1.62;58.74
17072;BME280;7731;50.720;6.912;2024-01-10T11:17:26;101230.53;;;-1.72;58.46
17072;BME280;7731;50.720;6.912;2024-01-10T11:20:48;101230.34;;;-1.36;59.15
17072;BME280;7731;50.720;6.912;2024-01-10T11:23:42;101228.25;;;-1.58;58.44
17072;BME280;7731;50.720;6.912;2024-01-10T11:26:15;101233.50;;;-1.46;57.88
17072;BME280;7731;50.720;6.912;2024-01-10T11:28:47;101230.03;;;-1.54;59.27
17072;BME280;7731;50.720;6.912;2024-01-10T11:31:28;101220.56;;;-1.17;57.17
17072;BME280;7731;50.720;6.912;2024-01-10T11:34:02;101209.25;;;-1.41;58.03
17072;BME280;7731;50.720;6.912;2024-01-10T11:36:33;101209.34;;;-1.36;56.36
17072;BME280;7731;50.720;6.912;2024-01-10T11:39:13;101212.69;;;-0.82;55.80
17072;BME280;7731;50.720;6.912;2024-01-10T11:41:48;101217.13;;;-0.69;54.15
17072;BME280;7731;50.720;6.912;2024-01-10T11:44:32;101215.13;;;-0.90;55.39
17072;BME280;7731;50.720;6.912;2024-01-10T11:47:04;101216.25;;;-0.69;55.52
17072;BME280;7731;50.720;6.912;2024-01-10T11:49:34;101205.19;;;-0.15;53.99
17072;BME280;7731;50.720;6.912;2024-01-10T11:52:06;101200.66;;;-0.41;53.90
17072;BME280;7731;50.720;6.912;2024-01-10T11:54:57;101200.94;;;-1.35;55.20
17072;BME280;7731;50.720;6.912;2024-01-10T11:57:28;101196.41;;;-1.04;56.04
17072;BME280;7731;50.720;6.912;2024-01-10T12:00:00;101189.50;;;-1.15;56.46
17072;BME280;7731;50.720;6.912;2024-01-10T12:02:36;101194.38;;;-1.26;55.96
17072;BME280;7731;50.720;6.912;2024-01-10T12:05:08;101194.03;;;-1.94;57.57
17072;BME280;7731;50.720;6.912;2024-01-10T12:07:40;101197.56;;;-1.83;57.59
17072;BME280;7731;50.720;6.912;2024-01-10T12:10:13;101189.53;;;-1.13;57.55
17072;BME280;7731;50.720;6.912;2024-01-10T12:12:45;101189.06;;;-1.42;56.40
17072;BME280;7731;50.720;6.912;2024-01-10T12:15:15;101192.25;;;-1.53;57.15
17072;BME280;7731;50.720;6.912;2024-01-10T12:17:45;101187.66;;;-1.74;57.44
17072;BME280;7731;50.720;6.912;2024-01-10T12:20:16;101191.34;;;-1.56;56.36
17072;BME280;7731;50.720;6.912;2024-01-10T12:22:46;101187.66;;;-1.25;57.77
17072;BME280;7731;50.720;6.912;2024-01-10T12:25:24;101187.13;;;-1.07;55.75
17072;BME280;7731;50.720;6.912;2024-01-10T12:28:02;101186.53;;;-1.44;56.47
17072;BME280;7731;50.720;6.912;2024-01-10T12:30:32;101181.78;;;-1.26;57.12
17072;BME280;7731;50.720;6.912;2024-01-10T12:33:03;101183.91;;;-0.97;57.09
17072;BME280;7731;50.720;6.912;2024-01-10T12:35:34;101179.19;;;-1.79;56.83
17072;BME280;7731;50.720;6.912;2024-01-10T12:38:07;101181.97;;;-1.64;57.21
17072;BME280;7731;50.720;6.912;2024-01-10T12:40:40;101182.28;;;-1.45;57.62
17072;BME280;7731;50.720;6.912;2024-01-10T12:43:12;101181.72;;;-1.29;58.48
17072;BME280;7731;50.720;6.912;2024-01-10T12:45:43;101181.06;;;-1.17;57.58
17072;BME280;7731;50.720;6.912;2024-01-10T12:48:14;101185.16;;;-1.23;57.29
17072;BME280;7731;50.720;6.912;2024-01-10T12:50:45;101171.38;;;-0.25;57.34
17072;BME280;7731;50.720;6.912;2024-01-10T12:53:17;101168.03;;;-0.24;55.44
17072;BME280;7731;50.720;6.912;2024-01-10T12:55:50;101164.91;;;-0.01;54.14
17072;BME280;7731;50.720;6.912;2024-01-10T12:58:22;101170.34;;;-0.41;55.49
17072;BME280;7731;50.720;6.912;2024-01-10T13:01:04;101166.75;;;-0.60;55.93
17072;BME280;7731;50.720;6.912;2024-01-10T13:03:35;101176.03;;;-0.56;56.86
17072;BME280;7731;50.720;6.912;2024-01-10T13:06:13;101169.50;;;0.34;54.97
17072;BME280;7731;50.720;6.912;2024-01-10T13:08:44;101175.53;;;-0.30;55.00
17072;BME280;7731;50.720;6.912;2024-01-10T13:11:23;101183.16;;;-0.27;55.74
17072;BME280;7731;50.720;6.912;2024-01-10T13:14:00;101162.34;;;-0.06;54.51
17072;BME280;7731;50.720;6.912;2024-01-10T13:16:33;101172.06;;;-0.38;55.95
17072;BME280;7731;50.720;6.912;2024-01-10T13:19:20;101176.75;;;0.03;54.87
17072;BME280;7731;50.720;6.912;2024-01-10T13:21:50;101173.47;;;-0.60;55.44
17072;BME280;7731;50.720;6.912;2024-01-10T13:24:21;101178.13;;;-0.24;55.72
17072;BME280;7731;50.720;6.912;2024-01-10T13:26:53;101174.78;;;-0.23;55.18
17072;BME280;7731;50.720;6.912;2024-01-10T13:29:24;101182.69;;;-0.64;56.47